Time;durP1;ratioP1;P1;durP2;ratioP2;P2;SDS_P1;SDS_P2;PMS_P1;PMS_P2;Temp;Humidity;BMP_temperature;BMP_pressure;BME280_temperature;BME280_humidity;BME280_pressure;Samples;Min_cycle;Max_cycle;Signal;HPM_P1;HPM_P2
2022/02/25 00:00:45;;;;;;;2.00;0.80;;;;;;;;;;5051470;28;20033;-54
2022/02/25 00:03:14;;;;;;;1.52;0.80;;;;;;;;;;5053090;28;20250;-54
2022/02/25 00:05:41;;;;;;;3.38;1.02;;;;;;;;;;5051800;28;20078;-53
2022/02/25 00:08:07;;;;;;;2.63;1.35;;;;;;;;;;5055974;28;20149;-54
2022/02/25 00:10:33;;;;;;;1.65;0.63;;;;;;;;;;5058145;28;20463;-54
2022/02/25 00:12:59;;;;;;;4.68;0.50;;;;;;;;;;5056291;28;20032;-53
2022/02/25 00:15:24;;;;;;;1.75;0.50;;;;;;;;;;5057297;28;20432;-54
2022/02/25 00:17:50;;;;;;;1.55;0.85;;;;;;;;;;5061191;28;20017;-54
2022/02/25 00:20:15;;;;;;;1.20;0.80;;;;;;;;;;5052244;28;20102;-54
2022/02/25 00:22:42;;;;;;;3.50;0.70;;;;;;;;;;5062360;28;20444;-53
2022/02/25 00:25:08;;;;;;;1.63;0.80;;;;;;;;;;5062929;28;20028;-53
2022/02/25 00:27:37;;;;;;;1.13;0.88;;;;;;;;;;5059688;28;20033;-55
2022/02/25 00:30:04;;;;;;;3.07;1.00;;;;;;;;;;5052927;28;20116;-54
2022/02/25 00:32:29;;;;;;;4.72;1.45;;;;;;;;;;5052440;28;20067;-54
2022/02/25 00:34:55;;;;;;;3.47;1.00;;;;;;;;;;5053103;28;20104;-55
2022/02/25 00:37:21;;;;;;;2.65;1.17;;;;;;;;;;5057894;28;20033;-54
2022/02/25 00:39:46;;;;;;;2.75;1.00;;;;;;;;;;5055590;28;20035;-54
2022/02/25 00:42:13;;;;;;;0.98;0.90;;;;;;;;;;5053792;28;20048;-54
2022/02/25 00:44:39;;;;;;;1.70;0.88;;;;;;;;;;5053620;28;20032;-54
2022/02/25 00:47:05;;;;;;;2.30;0.70;;;;;;;;;;5062935;28;20033;-54
2022/02/25 00:49:31;;;;;;;2.08;0.50;;;;;;;;;;5053562;28;20028;-54
2022/02/25 00:51:57;;;;;;;3.30;0.88;;;;;;;;;;5057047;28;20090;-53
2022/02/25 00:54:22;;;;;;;4.35;1.10;;;;;;;;;;5056357;28;20028;-53
2022/02/25 00:56:48;;;;;;;1.55;0.80;;;;;;;;;;5060009;28;20024;-55
2022/02/25 00:59:13;;;;;;;0.80;0.70;;;;;;;;;;5049072;28;20083;-54
2022/02/25 01:01:39;;;;;;;2.33;1.13;;;;;;;;;;5059838;28;20028;-54
2022/02/25 01:04:05;;;;;;;2.72;0.98;;;;;;;;;;5060962;28;20021;-53
2022/02/25 01:06:30;;;;;;;1.15;0.90;;;;;;;;;;5063171;28;20036;-53
2022/02/25 01:08:55;;;;;;;1.77;1.20;;;;;;;;;;5049159;28;20395;-54
2022/02/25 01:11:21;;;;;;;1.42;1.00;;;;;;;;;;5055295;28;20530;-52
2022/02/25 01:13:46;;;;;;;1.80;1.05;;;;;;;;;;5058171;28;20390;-53
2022/02/25 01:16:12;;;;;;;4.57;0.98;;;;;;;;;;5056744;28;20060;-53
2022/02/25 01:18:37;;;;;;;1.67;1.55;;;;;;;;;;5053765;28;20468;-53
2022/02/25 01:21:03;;;;;;;4.35;0.95;;;;;;;;;;5063196;28;20036;-53
2022/02/25 01:23:28;;;;;;;2.65;0.90;;;;;;;;;;5059414;28;20125;-52
2022/02/25 01:25:54;;;;;;;2.75;0.80;;;;;;;;;;5054942;28;20033;-54
2022/02/25 01:28:21;;;;;;;1.67;0.80;;;;;;;;;;5057857;28;20024;-55
2022/02/25 01:30:46;;;;;;;2.50;1.00;;;;;;;;;;5062498;28;20123;-53
2022/02/25 01:33:12;;;;;;;2.00;1.58;;;;;;;;;;5066319;28;20100;-54
2022/02/25 01:35:38;;;;;;;5.47;1.27;;;;;;;;;;5061993;28;20066;-52
2022/02/25 01:38:03;;;;;;;3.15;1.55;;;;;;;;;;5052855;28;20044;-53
2022/02/25 01:40:29;;;;;;;2.00;0.95;;;;;;;;;;5057614;28;20060;-53
2022/02/25 01:42:54;;;;;;;3.58;0.93;;;;;;;;;;5052898;28;20025;-54
2022/02/25 01:45:21;;;;;;;2.28;1.40;;;;;;;;;;5059204;28;20487;-54
2022/02/25 01:47:47;;;;;;;2.65;0.88;;;;;;;;;;5052852;28;20040;-55
2022/02/25 01:50:14;;;;;;;4.28;1.20;;;;;;;;;;5054807;28;20024;-55
2022/02/25 01:53:07;;;;;;;5.75;1.38;;;;;;;;;;5056618;28;20021;-53
2022/02/25 01:55:34;;;;;;;7.88;1.35;;;;;;;;;;5060182;28;20095;-52
2022/02/25 01:58:00;;;;;;;2.15;1.05;;;;;;;;;;5060580;28;20230;-53
2022/02/25 02:00:26;;;;;;;5.07;1.15;;;;;;;;;;5063444;28;20199;-53
2022/02/25 02:02:52;;;;;;;1.98;1.20;;;;;;;;;;5062618;28;20028;-53
2022/02/25 02:05:18;;;;;;;2.17;1.08;;;;;;;;;;5054211;28;20031;-53
2022/02/25 02:07:43;;;;;;;2.10;0.90;;;;;;;;;;5052992;28;20039;-54
2022/02/25 02:10:09;;;;;;;1.00;0.90;;;;;;;;;;5058256;28;20059;-53
2022/02/25 02:12:34;;;;;;;4.05;2.47;;;;;;;;;;5056982;28;20029;-53
2022/02/25 02:15:00;;;;;;;2.13;1.23;;;;;;;;;;5066924;28;20333;-55
2022/02/25 02:17:26;;;;;;;3.05;1.50;;;;;;;;;;5056659;28;20064;-53
2022/02/25 02:19:51;;;;;;;4.20;1.33;;;;;;;;;;5056166;28;20040;-54
2022/02/25 02:22:22;;;;;;;2.42;1.40;;;;;;;;;;5062669;28;20115;-52
2022/02/25 02:24:48;;;;;;;3.63;1.05;;;;;;;;;;5063320;28;20042;-52
2022/02/25 02:27:13;;;;;;;3.67;1.10;;;;;;;;;;5054881;28;20021;-53
2022/02/25 02:29:38;;;;;;;2.85;1.00;;;;;;;;;;5059860;28;20068;-52
2022/02/25 02:32:04;;;;;;;1.88;1.08;;;;;;;;;;5066132;28;20032;-52
2022/02/25 02:34:30;;;;;;;2.53;1.20;;;;;;;;;;5059743;28;20036;-51
2022/02/25 02:36:55;;;;;;;2.28;1.20;;;;;;;;;;5059477;28;20083;-53
2022/02/25 02:39:20;;;;;;;3.25;1.05;;;;;;;;;;5055608;28;20031;-53
2022/02/25 02:41:47;;;;;;;4.93;1.25;;;;;;;;;;5051941;28;20492;-52
2022/02/25 02:44:12;;;;;;;2.13;1.00;;;;;;;;;;5061008;28;20037;-50
2022/02/25 02:46:38;;;;;;;4.43;1.13;;;;;;;;;;5057098;28;20099;-54
2022/02/25 02:49:04;;;;;;;4.57;1.27;;;;;;;;;;5060937;28;20037;-52
2022/02/25 02:51:29;;;;;;;2.85;0.95;;;;;;;;;;5056686;28;20504;-53
2022/02/25 02:53:56;;;;;;;3.42;1.05;;;;;;;;;;5051590;28;20265;-54
2022/02/25 02:56:21;;;;;;;4.47;1.50;;;;;;;;;;5054829;28;20082;-52
2022/02/25 02:58:54;;;;;;;3.05;1.15;;;;;;;;;;5053461;28;20120;-53
2022/02/25 03:01:20;;;;;;;8.23;1.23;;;;;;;;;;5058210;28;20195;-53
2022/02/25 03:03:46;;;;;;;2.92;1.10;;;;;;;;;;5060427;28;20033;-52
2022/02/25 03:06:11;;;;;;;4.13;1.40;;;;;;;;;;5055122;28;20481;-51
2022/02/25 03:08:36;;;;;;;3.47;1.42;;;;;;;;;;5058973;28;20032;-51
2022/02/25 03:11:02;;;;;;;7.55;1.30;;;;;;;;;;5065785;28;20025;-50
2022/02/25 03:13:27;;;;;;;3.50;1.00;;;;;;;;;;5063541;28;20442;-51
2022/02/25 03:15:53;;;;;;;3.08;1.27;;;;;;;;;;5053595;28;20028;-53
2022/02/25 03:18:18;;;;;;;8.00;1.60;;;;;;;;;;5064530;28;20032;-52
2022/02/25 03:20:44;;;;;;;3.15;1.27;;;;;;;;;;5054111;28;20090;-51
2022/02/25 03:23:10;;;;;;;4.18;1.25;;;;;;;;;;5056890;28;20033;-52
2022/02/25 03:25:35;;;;;;;6.38;1.95;;;;;;;;;;5062458;28;20028;-52
2022/02/25 03:28:01;;;;;;;3.22;1.25;;;;;;;;;;5057359;28;20106;-53
2022/02/25 03:30:26;;;;;;;2.72;1.33;;;;;;;;;;5053322;28;20035;-52
2022/02/25 03:32:52;;;;;;;3.30;1.35;;;;;;;;;;5056000;28;20025;-53
2022/02/25 03:35:18;;;;;;;2.42;1.33;;;;;;;;;;5055334;28;20024;-52
2022/02/25 03:37:44;;;;;;;3.58;1.20;;;;;;;;;;5049641;28;20492;-53
2022/02/25 03:40:10;;;;;;;4.20;1.33;;;;;;;;;;5054582;28;20035;-52
2022/02/25 03:42:36;;;;;;;3.92;1.02;;;;;;;;;;5051881;28;20495;-52
2022/02/25 03:45:04;;;;;;;3.63;1.08;;;;;;;;;;5059684;28;20063;-53
2022/02/25 03:47:31;;;;;;;2.53;1.20;;;;;;;;;;5049488;28;20032;-51
2022/02/25 03:49:56;;;;;;;4.80;1.38;;;;;;;;;;5059922;28;20040;-50
2022/02/25 03:52:21;;;;;;;1.63;1.02;;;;;;;;;;5057052;28;20025;-51
2022/02/25 03:54:47;;;;;;;2.97;1.33;;;;;;;;;;5053407;28;20072;-51
2022/02/25 03:57:12;;;;;;;3.50;1.20;;;;;;;;;;5050847;28;20108;-52
2022/02/25 03:59:38;;;;;;;2.60;1.10;;;;;;;;;;5058353;28;20105;-51
2022/02/25 04:02:04;;;;;;;4.15;1.73;;;;;;;;;;5057821;28;20031;-51
2022/02/25 04:04:29;;;;;;;2.58;1.33;;;;;;;;;;5064080;28;20510;-54
2022/02/25 04:06:55;;;;;;;5.70;1.38;;;;;;;;;;5054998;28;20436;-54
2022/02/25 04:09:20;;;;;;;4.88;1.27;;;;;;;;;;5053352;28;20021;-54
2022/02/25 04:11:47;;;;;;;4.18;1.50;;;;;;;;;;5057983;28;20031;-53
2022/02/25 04:14:14;;;;;;;7.82;1.85;;;;;;;;;;5064341;28;20348;-53
2022/02/25 04:16:40;;;;;;;9.00;1.30;;;;;;;;;;5058175;28;20131;-52
2022/02/25 04:19:06;;;;;;;6.03;1.13;;;;;;;;;;5055986;28;20013;-51
2022/02/25 04:21:31;;;;;;;4.13;1.40;;;;;;;;;;5060485;28;20039;-50
2022/02/25 04:23:57;;;;;;;5.78;1.88;;;;;;;;;;5055384;28;20258;-54
2022/02/25 04:26:23;;;;;;;7.07;2.25;;;;;;;;;;5054827;28;20036;-50
2022/02/25 04:28:48;;;;;;;2.58;1.27;;;;;;;;;;5053560;28;20503;-52
2022/02/25 04:31:14;;;;;;;10.02;3.20;;;;;;;;;;5059503;28;20106;-51
2022/02/25 04:33:39;;;;;;;15.57;4.10;;;;;;;;;;5060233;28;20127;-51
2022/02/25 04:36:05;;;;;;;7.35;2.15;;;;;;;;;;5057655;28;20364;-52
2022/02/25 04:38:30;;;;;;;7.10;2.30;;;;;;;;;;5050893;28;20094;-50
2022/02/25 04:41:01;;;;;;;5.95;1.70;;;;;;;;;;5054863;28;20483;-50
2022/02/25 04:43:30;;;;;;;7.50;1.75;;;;;;;;;;5051855;28;20403;-51
2022/02/25 04:45:56;;;;;;;7.18;1.95;;;;;;;;;;5059032;28;20405;-52
2022/02/25 04:48:23;;;;;;;8.27;1.80;;;;;;;;;;5058404;28;20036;-53
2022/02/25 04:50:49;;;;;;;6.20;1.83;;;;;;;;;;5054537;28;20528;-52
2022/02/25 04:53:14;;;;;;;7.07;2.67;;;;;;;;;;5054537;28;20120;-53
2022/02/25 04:55:40;;;;;;;8.00;1.67;;;;;;;;;;5050195;28;20025;-53
2022/02/25 04:58:06;;;;;;;4.03;1.92;;;;;;;;;;5057894;28;20028;-53
2022/02/25 05:00:32;;;;;;;6.03;1.40;;;;;;;;;;5057747;28;20395;-54
2022/02/25 05:02:57;;;;;;;8.13;1.60;;;;;;;;;;5059071;28;20054;-51
2022/02/25 05:05:23;;;;;;;6.50;1.38;;;;;;;;;;5058004;28;20028;-52
2022/02/25 05:07:48;;;;;;;3.05;1.55;;;;;;;;;;5054449;28;20033;-53
2022/02/25 05:10:14;;;;;;;8.50;1.30;;;;;;;;;;5062659;28;20506;-53
2022/02/25 05:12:39;;;;;;;10.85;2.13;;;;;;;;;;5062371;28;20472;-52
2022/02/25 05:20:34;;;;;;;7.53;1.90;;;;;;;;;;5063510;28;20088;-53
2022/02/25 05:23:02;;;;;;;10.63;1.52;;;;;;;;;;5062074;28;20048;-54
2022/02/25 05:25:28;;;;;;;7.65;1.77;;;;;;;;;;5060792;28;20021;-56
2022/02/25 05:27:56;;;;;;;4.93;1.45;;;;;;;;;;5059508;28;20020;-53
2022/02/25 05:30:23;;;;;;;4.55;1.20;;;;;;;;;;5063527;28;20020;-56
2022/02/25 05:32:49;;;;;;;5.35;1.42;;;;;;;;;;5056354;28;20036;-57
2022/02/25 05:35:15;;;;;;;8.10;1.40;;;;;;;;;;5057743;28;20112;-57
2022/02/25 05:37:42;;;;;;;5.07;1.90;;;;;;;;;;5059711;28;20024;-54
2022/02/25 05:40:09;;;;;;;11.15;2.00;;;;;;;;;;5057110;28;20032;-53
2022/02/25 05:42:35;;;;;;;12.07;2.20;;;;;;;;;;5066615;28;20398;-54
2022/02/25 05:45:01;;;;;;;11.18;2.55;;;;;;;;;;5058984;28;20412;-52
2022/02/25 05:47:29;;;;;;;9.55;3.20;;;;;;;;;;5069165;28;20075;-53
2022/02/25 05:49:55;;;;;;;7.20;1.77;;;;;;;;;;5064604;28;20479;-51
2022/02/25 05:52:21;;;;;;;12.65;2.35;;;;;;;;;;5066975;28;20107;-54
2022/02/25 05:54:46;;;;;;;4.03;2.08;;;;;;;;;;5065955;28;20502;-52
2022/02/25 05:57:14;;;;;;;10.75;2.88;;;;;;;;;;5058078;28;20028;-50
2022/02/25 05:59:40;;;;;;;8.93;2.35;;;;;;;;;;5068594;28;20033;-53
2022/02/25 06:02:05;;;;;;;5.07;1.88;;;;;;;;;;5061741;28;20020;-52
2022/02/25 06:04:31;;;;;;;5.72;2.20;;;;;;;;;;5060314;28;20480;-53
2022/02/25 06:06:56;;;;;;;6.05;1.58;;;;;;;;;;5069960;28;20028;-52
2022/02/25 06:09:22;;;;;;;8.77;2.03;;;;;;;;;;5063873;28;20028;-54
2022/02/25 06:11:48;;;;;;;9.43;2.47;;;;;;;;;;5064767;28;20519;-54
2022/02/25 06:14:13;;;;;;;5.50;2.00;;;;;;;;;;5068653;28;20060;-53
2022/02/25 06:16:39;;;;;;;7.80;2.63;;;;;;;;;;5061402;28;20081;-54
2022/02/25 06:19:04;;;;;;;6.03;2.10;;;;;;;;;;5061868;28;20021;-51
2022/02/25 06:21:29;;;;;;;6.00;2.13;;;;;;;;;;5056201;28;20048;-55
2022/02/25 06:23:55;;;;;;;6.95;2.67;;;;;;;;;;5069189;28;20039;-54
2022/02/25 06:26:20;;;;;;;6.18;1.85;;;;;;;;;;5064551;28;20043;-53
2022/02/25 06:28:46;;;;;;;6.20;2.03;;;;;;;;;;5061634;28;20029;-50
2022/02/25 06:31:12;;;;;;;4.20;1.80;;;;;;;;;;5061910;28;20028;-53
2022/02/25 06:33:37;;;;;;;5.30;2.22;;;;;;;;;;5050975;28;20031;-54
2022/02/25 06:36:03;;;;;;;7.80;2.17;;;;;;;;;;5067002;28;20115;-54
2022/02/25 06:38:28;;;;;;;6.65;2.03;;;;;;;;;;5065412;28;20119;-53
2022/02/25 06:40:55;;;;;;;8.02;2.45;;;;;;;;;;5058605;28;20047;-52
2022/02/25 06:43:20;;;;;;;7.32;2.28;;;;;;;;;;5062028;28;20036;-54
2022/02/25 06:45:46;;;;;;;6.07;2.10;;;;;;;;;;5065100;28;20027;-53
2022/02/25 06:48:11;;;;;;;4.97;2.13;;;;;;;;;;5060560;28;20025;-52
2022/02/25 06:50:37;;;;;;;5.65;2.20;;;;;;;;;;5061829;28;20024;-55
2022/02/25 06:53:02;;;;;;;8.70;2.90;;;;;;;;;;5067461;28;20025;-54
2022/02/25 06:55:28;;;;;;;12.15;2.28;;;;;;;;;;5065426;28;20146;-52
2022/02/25 06:57:54;;;;;;;6.70;2.40;;;;;;;;;;5063592;28;20123;-52
2022/02/25 07:00:23;;;;;;;7.95;2.25;;;;;;;;;;5061180;28;20032;-54
2022/02/25 07:02:50;;;;;;;9.38;2.20;;;;;;;;;;5062250;28;20070;-53
2022/02/25 07:05:15;;;;;;;6.82;2.20;;;;;;;;;;5055420;28;20106;-55
2022/02/25 07:07:41;;;;;;;9.95;2.05;;;;;;;;;;5057041;28;20468;-54
2022/02/25 07:10:07;;;;;;;5.35;1.80;;;;;;;;;;5065562;28;20036;-54
2022/02/25 07:12:32;;;;;;;12.13;2.65;;;;;;;;;;5063490;28;20130;-54
2022/02/25 07:14:58;;;;;;;4.97;1.80;;;;;;;;;;5062095;28;20028;-54
2022/02/25 07:17:24;;;;;;;6.18;2.15;;;;;;;;;;5054904;28;20115;-55
2022/02/25 07:19:49;;;;;;;6.35;2.10;;;;;;;;;;5064336;28;20288;-53
2022/02/25 07:22:15;;;;;;;7.70;1.63;;;;;;;;;;5055282;28;20048;-54
2022/02/25 07:24:41;;;;;;;6.20;1.85;;;;;;;;;;5060447;28;20051;-53
2022/02/25 07:27:07;;;;;;;10.15;2.22;;;;;;;;;;5054885;28;20040;-54
2022/02/25 07:29:32;;;;;;;7.80;2.17;;;;;;;;;;5067537;28;20016;-53
2022/02/25 07:31:58;;;;;;;11.13;2.38;;;;;;;;;;5066123;28;20244;-53
2022/02/25 07:34:24;;;;;;;15.65;2.20;;;;;;;;;;5055816;28;20503;-59
2022/02/25 07:36:49;;;;;;;7.90;2.10;;;;;;;;;;5059070;28;20055;-55
2022/02/25 07:39:15;;;;;;;4.43;2.10;;;;;;;;;;5060500;28;20032;-53
2022/02/25 07:41:41;;;;;;;9.20;1.98;;;;;;;;;;5051856;28;20020;-53
2022/02/25 07:44:07;;;;;;;3.92;2.28;;;;;;;;;;5060794;28;20431;-50
2022/02/25 07:46:32;;;;;;;9.18;2.00;;;;;;;;;;5064297;28;20021;-54
2022/02/25 07:48:58;;;;;;;9.52;2.47;;;;;;;;;;5066639;28;20506;-53
2022/02/25 07:51:26;;;;;;;11.60;3.22;;;;;;;;;;5066719;28;20029;-53
2022/02/25 07:53:52;;;;;;;20.85;4.55;;;;;;;;;;5064247;28;20027;-53
2022/02/25 07:56:18;;;;;;;19.55;4.25;;;;;;;;;;5063812;28;20099;-53
2022/02/25 07:58:44;;;;;;;5.97;2.38;;;;;;;;;;5055658;28;20084;-54
2022/02/25 08:01:10;;;;;;;12.68;2.75;;;;;;;;;;5058092;28;20044;-53
2022/02/25 08:03:36;;;;;;;11.52;3.38;;;;;;;;;;5056702;28;20028;-54
2022/02/25 08:06:02;;;;;;;10.73;3.63;;;;;;;;;;5067096;28;20025;-54
2022/02/25 08:08:27;;;;;;;5.68;2.45;;;;;;;;;;5067056;28;20032;-53
2022/02/25 08:10:53;;;;;;;12.18;2.47;;;;;;;;;;5063039;28;20062;-53
2022/02/25 08:13:19;;;;;;;7.10;2.67;;;;;;;;;;5065451;28;20028;-53
2022/02/25 08:15:45;;;;;;;4.95;2.00;;;;;;;;;;5066518;28;20103;-54
2022/02/25 08:18:10;;;;;;;9.20;2.17;;;;;;;;;;5066889;28;20039;-54
2022/02/25 08:20:37;;;;;;;6.72;2.25;;;;;;;;;;5061430;28;20028;-54
2022/02/25 08:23:04;;;;;;;9.10;1.95;;;;;;;;;;5066878;28;20025;-55
2022/02/25 08:25:32;;;;;;;9.00;2.25;;;;;;;;;;5065932;28;20388;-54
2022/02/25 08:27:57;;;;;;;7.47;2.22;;;;;;;;;;5062396;28;20029;-54
2022/02/25 08:30:23;;;;;;;8.68;2.97;;;;;;;;;;5064530;28;20035;-55
2022/02/25 08:32:50;;;;;;;11.43;3.10;;;;;;;;;;5065232;28;20033;-55
2022/02/25 08:35:17;;;;;;;6.50;2.38;;;;;;;;;;5066648;28;20037;-55
2022/02/25 08:37:44;;;;;;;12.55;2.92;;;;;;;;;;5066746;28;20499;-53
2022/02/25 08:40:11;;;;;;;6.75;2.70;;;;;;;;;;5067792;28;20032;-54
2022/02/25 08:42:37;;;;;;;10.07;2.05;;;;;;;;;;5066966;28;20043;-55
2022/02/25 08:45:08;;;;;;;8.52;2.00;;;;;;;;;;5065742;28;20047;-55
2022/02/25 08:47:34;;;;;;;9.88;2.55;;;;;;;;;;5066485;28;20090;-55
2022/02/25 08:49:59;;;;;;;8.23;2.05;;;;;;;;;;5064954;28;20035;-54
2022/02/25 08:52:25;;;;;;;8.27;2.20;;;;;;;;;;5057117;28;20024;-54
2022/02/25 08:54:51;;;;;;;8.95;2.45;;;;;;;;;;5056013;28;20487;-55
2022/02/25 08:57:17;;;;;;;6.20;2.50;;;;;;;;;;5059150;28;20721;-55
2022/02/25 08:59:43;;;;;;;12.25;4.00;;;;;;;;;;5060174;28;20096;-53
2022/02/25 09:02:10;;;;;;;11.02;1.90;;;;;;;;;;5064850;28;20437;-53
2022/02/25 09:04:35;;;;;;;8.00;2.40;;;;;;;;;;5055587;28;20020;-53
2022/02/25 09:07:01;;;;;;;8.35;1.80;;;;;;;;;;5060397;28;20575;-54
2022/02/25 09:09:26;;;;;;;10.55;2.00;;;;;;;;;;5063072;28;20040;-54
2022/02/25 09:11:52;;;;;;;12.48;1.70;;;;;;;;;;5058570;28;20094;-54
2022/02/25 09:14:18;;;;;;;7.00;1.73;;;;;;;;;;5056614;28;20051;-54
2022/02/25 09:16:43;;;;;;;8.10;1.83;;;;;;;;;;5053216;28;20037;-56
2022/02/25 09:19:09;;;;;;;9.00;2.13;;;;;;;;;;5057766;28;20037;-54
2022/02/25 09:21:35;;;;;;;12.18;1.77;;;;;;;;;;5059526;28;20032;-55
2022/02/25 09:24:02;;;;;;;14.05;1.83;;;;;;;;;;5056733;28;20029;-54
2022/02/25 09:26:28;;;;;;;19.17;3.80;;;;;;;;;;5058730;28;20104;-54
2022/02/25 09:28:53;;;;;;;14.32;1.85;;;;;;;;;;5053253;28;20448;-54
2022/02/25 09:31:19;;;;;;;13.43;4.45;;;;;;;;;;5064779;28;20025;-54
2022/02/25 09:33:44;;;;;;;13.63;2.45;;;;;;;;;;5056293;28;20025;-53
2022/02/25 09:36:10;;;;;;;7.22;1.85;;;;;;;;;;5065730;28;20498;-54
2022/02/25 09:38:36;;;;;;;10.13;2.13;;;;;;;;;;5060148;28;20040;-54
2022/02/25 09:41:04;;;;;;;7.70;1.83;;;;;;;;;;5066282;28;20127;-55
2022/02/25 09:43:31;;;;;;;12.00;2.40;;;;;;;;;;5066787;28;20475;-54
2022/02/25 09:45:56;;;;;;;9.52;2.08;;;;;;;;;;5068845;28;20043;-55
2022/02/25 09:48:21;;;;;;;10.20;2.15;;;;;;;;;;5068958;28;20032;-54
2022/02/25 09:50:51;;;;;;;11.88;3.20;;;;;;;;;;5069622;28;20142;-55
2022/02/25 09:53:17;;;;;;;6.07;1.67;;;;;;;;;;5069988;28;20107;-55
2022/02/25 09:55:43;;;;;;;9.90;2.13;;;;;;;;;;5068654;28;20039;-55
2022/02/25 09:58:09;;;;;;;10.02;1.77;;;;;;;;;;5069302;28;20024;-54
2022/02/25 10:00:37;;;;;;;6.35;2.42;;;;;;;;;;5070001;28;20450;-53
2022/02/25 10:03:09;;;;;;;9.48;3.25;;;;;;;;;;5066580;28;20033;-54
2022/02/25 10:05:35;;;;;;;5.95;2.90;;;;;;;;;;5065518;28;20104;-54
2022/02/25 10:08:12;;;;;;;21.38;8.38;;;;;;;;;;5068757;28;20048;-55
2022/02/25 10:10:42;;;;;;;11.40;4.40;;;;;;;;;;5069964;28;20128;-55
2022/02/25 10:13:08;;;;;;;14.35;5.22;;;;;;;;;;5069123;28;20115;-55
2022/02/25 10:15:36;;;;;;;19.67;5.13;;;;;;;;;;5068945;28;20124;-55
2022/02/25 10:18:19;;;;;;;24.50;7.50;;;;;;;;;;5068838;28;20031;-55
2022/02/25 10:20:46;;;;;;;27.63;5.95;;;;;;;;;;5068610;28;20055;-55
2022/02/25 10:23:20;;;;;;;16.67;3.17;;;;;;;;;;5067741;28;20126;-53
2022/02/25 10:25:46;;;;;;;12.50;3.20;;;;;;;;;;5067563;28;20051;-55
2022/02/25 10:28:11;;;;;;;5.88;1.90;;;;;;;;;;5066932;28;20500;-55
2022/02/25 10:30:38;;;;;;;12.90;2.70;;;;;;;;;;5069291;28;20039;-54
2022/02/25 10:33:04;;;;;;;8.35;1.80;;;;;;;;;;5064735;28;20032;-54
2022/02/25 10:35:40;;;;;;;7.78;1.70;;;;;;;;;;5068762;28;20119;-55
2022/02/25 10:38:14;;;;;;;5.78;1.10;;;;;;;;;;5068221;28;20130;-54
2022/02/25 10:40:42;;;;;;;6.68;1.70;;;;;;;;;;5069337;28;20025;-53
2022/02/25 10:43:17;;;;;;;4.22;1.10;;;;;;;;;;5067787;28;20479;-56
2022/02/25 10:45:44;;;;;;;5.15;1.95;;;;;;;;;;5068152;28;20517;-53
2022/02/25 10:48:14;;;;;;;6.78;1.33;;;;;;;;;;5068805;28;20040;-54
2022/02/25 10:50:57;;;;;;;4.68;1.40;;;;;;;;;;5068004;28;20037;-55
2022/02/25 10:53:49;;;;;;;6.40;1.90;;;;;;;;;;5059863;28;20111;-54
2022/02/25 10:56:17;;;;;;;9.32;1.50;;;;;;;;;;5065394;28;20786;-56
2022/02/25 10:58:45;;;;;;;14.00;1.48;;;;;;;;;;5059622;28;20037;-55
2022/02/25 11:01:13;;;;;;;8.75;1.23;;;;;;;;;;5067328;28;20609;-55
2022/02/25 11:03:39;;;;;;;7.93;2.35;;;;;;;;;;5064639;28;20029;-55
2022/02/25 11:06:09;;;;;;;10.18;2.72;;;;;;;;;;5061689;28;20031;-55
2022/02/25 11:08:36;;;;;;;7.03;1.60;;;;;;;;;;5063253;28;20028;-54
2022/02/25 11:11:02;;;;;;;3.15;1.30;;;;;;;;;;5061867;28;20388;-55
2022/02/25 11:13:28;;;;;;;5.70;2.08;;;;;;;;;;5063769;28;20029;-55
2022/02/25 11:15:54;;;;;;;5.47;1.83;;;;;;;;;;5064434;28;20024;-55
2022/02/25 11:18:20;;;;;;;5.82;1.50;;;;;;;;;;5061339;28;20032;-56
2022/02/25 11:20:48;;;;;;;11.45;1.90;;;;;;;;;;5062125;28;20388;-54
2022/02/25 11:23:15;;;;;;;6.18;1.88;;;;;;;;;;5066037;28;20055;-55
2022/02/25 11:25:44;;;;;;;8.63;1.98;;;;;;;;;;5066635;28;20032;-56
2022/02/25 11:28:10;;;;;;;6.47;1.75;;;;;;;;;;5051227;28;20476;-54
2022/02/25 11:30:57;;;;;;;6.50;1.70;;;;;;;;;;5063775;28;20478;-55
2022/02/25 11:33:25;;;;;;;6.40;1.80;;;;;;;;;;5061287;28;20487;-55
2022/02/25 11:35:53;;;;;;;12.48;2.30;;;;;;;;;;5058529;28;20027;-56
2022/02/25 11:38:47;;;;;;;8.50;1.63;;;;;;;;;;5057965;28;20369;-56
2022/02/25 11:41:15;;;;;;;8.77;2.05;;;;;;;;;;5059695;28;20124;-55
2022/02/25 11:43:54;;;;;;;9.80;1.80;;;;;;;;;;5068145;28;20029;-55
2022/02/25 11:46:28;;;;;;;5.32;1.77;;;;;;;;;;5054477;28;20154;-55
2022/02/25 11:48:58;;;;;;;8.23;1.88;;;;;;;;;;5058108;28;20029;-56
2022/02/25 11:51:42;;;;;;;5.07;1.67;;;;;;;;;;5062396;28;20035;-56
2022/02/25 11:54:35;;;;;;;6.57;2.13;;;;;;;;;;5055490;28;20074;-54
2022/02/25 11:57:04;;;;;;;5.88;2.17;;;;;;;;;;5066335;28;20527;-55
2022/02/25 11:59:32;;;;;;;9.38;1.75;;;;;;;;;;5065657;28;20033;-54
2022/02/25 12:02:12;;;;;;;8.38;2.45;;;;;;;;;;5057192;28;20071;-55
2022/02/25 12:04:43;;;;;;;7.18;1.90;;;;;;;;;;5066849;28;20024;-55
2022/02/25 12:07:10;;;;;;;7.68;1.60;;;;;;;;;;5066875;28;20086;-55
2022/02/25 12:09:39;;;;;;;3.60;1.30;;;;;;;;;;5065563;28;20430;-55
2022/02/25 12:12:22;;;;;;;11.30;2.00;;;;;;;;;;5065766;28;20507;-55
2022/02/25 12:15:12;;;;;;;9.95;1.13;;;;;;;;;;5065821;28;20024;-55
2022/02/25 12:17:55;;;;;;;6.50;1.58;;;;;;;;;;5065341;28;20105;-56
2022/02/25 12:20:35;;;;;;;7.97;1.58;;;;;;;;;;5066967;28;20016;-54
2022/02/25 12:23:04;;;;;;;7.30;1.48;;;;;;;;;;5065231;28;20028;-54
2022/02/25 12:25:43;;;;;;;10.23;1.70;;;;;;;;;;5065965;28;20048;-55
2022/02/25 12:28:24;;;;;;;5.38;1.73;;;;;;;;;;5064776;28;20024;-56
2022/02/25 12:31:10;;;;;;;6.55;1.65;;;;;;;;;;5063371;28;20123;-55
2022/02/25 12:33:44;;;;;;;8.43;2.00;;;;;;;;;;5058087;28;20032;-56
2022/02/25 12:36:21;;;;;;;7.18;1.88;;;;;;;;;;5062438;28;20553;-54
2022/02/25 12:39:09;;;;;;;6.20;1.85;;;;;;;;;;5066290;28;20464;-55
2022/02/25 12:41:37;;;;;;;5.63;1.33;;;;;;;;;;5059213;28;20113;-55
2022/02/25 12:44:09;;;;;;;6.40;1.50;;;;;;;;;;5066659;28;21602;-55
2022/02/25 12:46:57;;;;;;;7.28;1.80;;;;;;;;;;5062836;28;20043;-56
2022/02/25 12:49:25;;;;;;;5.57;2.13;;;;;;;;;;5059901;28;20032;-55
2022/02/25 12:51:54;;;;;;;9.15;1.80;;;;;;;;;;5066853;28;20028;-54
2022/02/25 12:54:23;;;;;;;8.70;2.00;;;;;;;;;;5067370;28;20040;-56
2022/02/25 12:56:51;;;;;;;7.60;1.83;;;;;;;;;;5063895;28;20035;-55
2022/02/25 12:59:19;;;;;;;7.25;2.30;;;;;;;;;;5065519;28;20024;-56
2022/02/25 13:01:53;;;;;;;5.93;1.80;;;;;;;;;;5066175;28;20431;-56
2022/02/25 13:04:24;;;;;;;6.07;1.95;;;;;;;;;;5067005;28;20325;-55
2022/02/25 13:06:52;;;;;;;5.18;2.03;;;;;;;;;;5065938;28;20410;-56
2022/02/25 13:09:23;;;;;;;7.28;1.88;;;;;;;;;;5059169;28;20039;-55
2022/02/25 13:11:55;;;;;;;4.90;1.88;;;;;;;;;;5060506;28;20029;-56
2022/02/25 13:14:27;;;;;;;9.00;2.20;;;;;;;;;;5054297;28;20104;-56
2022/02/25 13:17:04;;;;;;;4.80;1.50;;;;;;;;;;5066713;28;20517;-55
2022/02/25 13:19:48;;;;;;;7.38;2.47;;;;;;;;;;5063096;28;20086;-55
2022/02/25 13:22:19;;;;;;;16.17;3.13;;;;;;;;;;5067869;28;20028;-55
2022/02/25 13:24:58;;;;;;;5.55;1.63;;;;;;;;;;5067275;28;20085;-55
2022/02/25 13:27:27;;;;;;;6.43;2.42;;;;;;;;;;5063501;28;20084;-55
2022/02/25 13:29:53;;;;;;;5.90;2.40;;;;;;;;;;5067140;28;20123;-56
2022/02/25 13:32:25;;;;;;;9.00;2.33;;;;;;;;;;5055221;28;20099;-55
2022/02/25 13:34:51;;;;;;;7.68;2.78;;;;;;;;;;5068871;28;20031;-55
2022/02/25 13:37:17;;;;;;;10.75;2.92;;;;;;;;;;5070326;28;20028;-55
2022/02/25 13:39:42;;;;;;;12.48;2.60;;;;;;;;;;5064764;28;20020;-55
2022/02/25 13:42:08;;;;;;;8.77;2.95;;;;;;;;;;5062441;28;20458;-56
2022/02/25 13:44:35;;;;;;;6.90;1.88;;;;;;;;;;5068431;28;20499;-55
2022/02/25 13:52:32;;;;;;;8.02;1.92;;;;;;;;;;5069143;28;20119;-56
2022/02/25 13:55:06;;;;;;;12.82;3.03;;;;;;;;;;5068115;28;20131;-56
2022/02/25 13:57:38;;;;;;;3.60;1.58;;;;;;;;;;5068998;28;20032;-56
2022/02/25 14:00:08;;;;;;;8.98;1.75;;;;;;;;;;5067976;28;20123;-57
2022/02/25 14:02:37;;;;;;;8.00;3.00;;;;;;;;;;5070106;28;20031;-56
2022/02/25 14:05:09;;;;;;;9.35;3.53;;;;;;;;;;5060976;28;20494;-55
2022/02/25 14:07:54;;;;;;;9.10;2.38;;;;;;;;;;5063344;28;20039;-56
2022/02/25 14:10:23;;;;;;;5.47;2.15;;;;;;;;;;5063302;28;20451;-56
2022/02/25 14:12:49;;;;;;;11.43;3.47;;;;;;;;;;5064586;28;20025;-56
2022/02/25 14:15:16;;;;;;;7.85;2.65;;;;;;;;;;5068584;28;20056;-55
2022/02/25 14:17:43;;;;;;;9.68;2.58;;;;;;;;;;5063068;28;20058;-56
2022/02/25 14:20:13;;;;;;;8.65;2.72;;;;;;;;;;5059351;28;20441;-55
2022/02/25 14:22:45;;;;;;;6.00;1.85;;;;;;;;;;5066765;28;20031;-55
2022/02/25 14:25:38;;;;;;;11.00;2.35;;;;;;;;;;5060740;28;20059;-56
2022/02/25 14:28:13;;;;;;;5.28;1.92;;;;;;;;;;5060220;28;20052;-55
2022/02/25 14:30:38;;;;;;;9.10;1.55;;;;;;;;;;5063643;28;20078;-55
2022/02/25 14:33:08;;;;;;;9.90;2.60;;;;;;;;;;5067374;28;20056;-55
2022/02/25 14:35:35;;;;;;;13.38;3.58;;;;;;;;;;5066114;28;20032;-55
2022/02/25 14:38:01;;;;;;;8.98;2.67;;;;;;;;;;5063487;28;20059;-55
2022/02/25 14:40:28;;;;;;;9.05;4.10;;;;;;;;;;5069418;28;20025;-56
2022/02/25 14:42:56;;;;;;;15.48;5.50;;;;;;;;;;5059213;28;20403;-55
2022/02/25 14:45:23;;;;;;;16.92;6.07;;;;;;;;;;5055713;28;20082;-56
2022/02/25 14:47:49;;;;;;;13.55;4.18;;;;;;;;;;5063757;28;20397;-55
2022/02/25 14:50:15;;;;;;;13.52;7.18;;;;;;;;;;5068093;28;20434;-54
2022/02/25 14:52:40;;;;;;;12.50;4.32;;;;;;;;;;5059248;28;20085;-56
2022/02/25 14:55:07;;;;;;;12.70;4.45;;;;;;;;;;5061833;28;20070;-55